Diaz, Arkansas
Current Conditions -  °F | °C
As of 3:56 PM on Friday 19 Dec 2014 (Local Time) from KM19 Reporting Station
Overcast Overcast  
Wind Chill: 35°   Ceiling: 7000
Heat Index: 41°   Visibility: 10mi
Dew Point: 36°   Wind: 10mph
Humidity: 82%   Direction: 40°NE
Pressure: 30.22"   Gusts: NA
Location:  35.64°N, 91.27°W
Report Text: KM19 192156Z AUTO 04009KT 10SM BKN070 OVC090 05/02 A3022 RMK AO2 T00500022 BKN V SCT SLP235
Loading
Personal Weather Stations






























Interactive Weather Map New forecast layout! Learn more

10-Day Weather Forecast

Advertisements
Track Severe Weather on mobile